Snyder, Texas
Current Conditions -  °F | °C
As of 2:55 AM on Wednesday 26 Nov 2014 (Local Time) from KSNK Reporting Station
Clear Clear  
Wind Chill: 32°   Ceiling: Unl
Heat Index: 39°   Visibility: 10mi
Dew Point: 20°   Wind: 10mph
Humidity: 47%   Direction: 240°WSW
Pressure: 30.1"   Gusts: NA
Location:  32.72°N, 100.91°W
Report Text: KSNK 260855Z AUTO 24009KT 10SM CLR 04/M06 A3010 RMK AO2 T00401065
Loading
Personal Weather Stations






























Interactive Weather Map New forecast layout! Learn more

10-Day Weather Forecast

Advertisements
Track Severe Weather on mobile